sensor_id;sensor_type;location;lat;lon;timestamp;pressure;altitude;pressure_sealevel;temperature
7389;BMP180;3735;50.136;11.062;2023-03-11T00:00:28;96472.00;;;2.10
7389;BMP180;3735;50.136;11.062;2023-03-11T00:02:57;96468.00;;;2.00
7389;BMP180;3735;50.136;11.062;2023-03-11T00:05:32;96474.00;;;2.00
7389;BMP180;3735;50.136;11.062;2023-03-11T00:07:59;96491.00;;;2.00
7389;BMP180;3735;50.136;11.062;2023-03-11T00:10:39;96497.00;;;2.00
7389;BMP180;3735;50.136;11.062;2023-03-11T00:13:07;96502.00;;;2.00
7389;BMP180;3735;50.136;11.062;2023-03-11T00:15:35;96521.00;;;2.00
7389;BMP180;3735;50.136;11.062;2023-03-11T00:18:01;96517.00;;;2.00
7389;BMP180;3735;50.136;11.062;2023-03-11T00:20:40;96538.00;;;2.00
7389;BMP180;3735;50.136;11.062;2023-03-11T00:23:08;96539.00;;;2.10
7389;BMP180;3735;50.136;11.062;2023-03-11T00:25:36;96545.00;;;2.00
7389;BMP180;3735;50.136;11.062;2023-03-11T00:28:04;96549.00;;;2.00
7389;BMP180;3735;50.136;11.062;2023-03-11T00:30:32;96560.00;;;2.10
7389;BMP180;3735;50.136;11.062;2023-03-11T00:32:58;96562.00;;;2.00
7389;BMP180;3735;50.136;11.062;2023-03-11T00:35:30;96562.00;;;2.00
7389;BMP180;3735;50.136;11.062;2023-03-11T00:38:00;96589.00;;;2.00
7389;BMP180;3735;50.136;11.062;2023-03-11T00:40:29;96591.00;;;2.00
7389;BMP180;3735;50.136;11.062;2023-03-11T00:42:56;96600.00;;;1.90
7389;BMP180;3735;50.136;11.062;2023-03-11T00:45:22;96594.00;;;2.00
7389;BMP180;3735;50.136;11.062;2023-03-11T00:47:47;96604.00;;;2.00
7389;BMP180;3735;50.136;11.062;2023-03-11T00:50:19;96609.00;;;1.90
7389;BMP180;3735;50.136;11.062;2023-03-11T00:52:48;96620.00;;;1.90
7389;BMP180;3735;50.136;11.062;2023-03-11T00:55:19;96625.00;;;1.90
7389;BMP180;3735;50.136;11.062;2023-03-11T00:57:45;96606.00;;;1.90
7389;BMP180;3735;50.136;11.062;2023-03-11T01:00:20;96637.00;;;1.90
7389;BMP180;3735;50.136;11.062;2023-03-11T01:02:46;96626.00;;;1.90
7389;BMP180;3735;50.136;11.062;2023-03-11T01:05:13;96648.00;;;1.90
7389;BMP180;3735;50.136;11.062;2023-03-11T01:07:38;96627.00;;;1.90
7389;BMP180;3735;50.136;11.062;2023-03-11T01:10:06;96647.00;;;1.90
7389;BMP180;3735;50.136;11.062;2023-03-11T01:12:33;96667.00;;;1.90
7389;BMP180;3735;50.136;11.062;2023-03-11T01:14:59;96659.00;;;1.90
7389;BMP180;3735;50.136;11.062;2023-03-11T01:17:25;96675.00;;;1.90
7389;BMP180;3735;50.136;11.062;2023-03-11T01:19:51;96671.00;;;1.90
7389;BMP180;3735;50.136;11.062;2023-03-11T01:22:17;96671.00;;;1.80
7389;BMP180;3735;50.136;11.062;2023-03-11T01:24:43;96675.00;;;1.90
7389;BMP180;3735;50.136;11.062;2023-03-11T01:27:08;96681.00;;;1.80
7389;BMP180;3735;50.136;11.062;2023-03-11T01:29:34;96692.00;;;1.80
7389;BMP180;3735;50.136;11.062;2023-03-11T01:32:00;96687.00;;;1.80
7389;BMP180;3735;50.136;11.062;2023-03-11T01:34:26;96690.00;;;1.80
7389;BMP180;3735;50.136;11.062;2023-03-11T01:36:51;96687.00;;;1.70
7389;BMP180;3735;50.136;11.062;2023-03-11T01:39:17;96690.00;;;1.80
7389;BMP180;3735;50.136;11.062;2023-03-11T01:41:43;96697.00;;;1.80
7389;BMP180;3735;50.136;11.062;2023-03-11T01:44:11;96696.00;;;1.80
7389;BMP180;3735;50.136;11.062;2023-03-11T01:49:22;96709.00;;;1.80
7389;BMP180;3735;50.136;11.062;2023-03-11T01:51:53;96717.00;;;1.80
7389;BMP180;3735;50.136;11.062;2023-03-11T01:54:34;96721.00;;;1.80
7389;BMP180;3735;50.136;11.062;2023-03-11T01:57:07;96734.00;;;1.80
7389;BMP180;3735;50.136;11.062;2023-03-11T01:59:40;96718.00;;;1.80
7389;BMP180;3735;50.136;11.062;2023-03-11T02:02:33;96745.00;;;1.80
7389;BMP180;3735;50.136;11.062;2023-03-11T02:05:02;96739.00;;;1.80
7389;BMP180;3735;50.136;11.062;2023-03-11T02:07:28;96744.00;;;1.80
7389;BMP180;3735;50.136;11.062;2023-03-11T02:09:54;96730.00;;;1.70
7389;BMP180;3735;50.136;11.062;2023-03-11T02:12:20;96732.00;;;1.70
7389;BMP180;3735;50.136;11.062;2023-03-11T02:14:50;96753.00;;;1.70
7389;BMP180;3735;50.136;11.062;2023-03-11T02:17:17;96751.00;;;1.60
7389;BMP180;3735;50.136;11.062;2023-03-11T02:20:02;96752.00;;;1.60
7389;BMP180;3735;50.136;11.062;2023-03-11T02:22:32;96740.00;;;1.60
7389;BMP180;3735;50.136;11.062;2023-03-11T02:27:46;96747.00;;;1.60
7389;BMP180;3735;50.136;11.062;2023-03-11T02:30:14;96745.00;;;1.60
7389;BMP180;3735;50.136;11.062;2023-03-11T02:32:43;96756.00;;;1.60
7389;BMP180;3735;50.136;11.062;2023-03-11T02:35:13;96764.00;;;1.50
7389;BMP180;3735;50.136;11.062;2023-03-11T02:37:47;96780.00;;;1.50
7389;BMP180;3735;50.136;11.062;2023-03-11T02:43:03;96773.00;;;1.50
7389;BMP180;3735;50.136;11.062;2023-03-11T02:45:31;96770.00;;;1.40
7389;BMP180;3735;50.136;11.062;2023-03-11T02:47:58;96783.00;;;1.40
7389;BMP180;3735;50.136;11.062;2023-03-11T02:50:27;96772.00;;;1.40
7389;BMP180;3735;50.136;11.062;2023-03-11T02:52:53;96779.00;;;1.30
7389;BMP180;3735;50.136;11.062;2023-03-11T02:55:20;96787.00;;;1.20
7389;BMP180;3735;50.136;11.062;2023-03-11T02:57:47;96776.00;;;1.20
7389;BMP180;3735;50.136;11.062;2023-03-11T03:00:16;96778.00;;;1.10
7389;BMP180;3735;50.136;11.062;2023-03-11T03:02:44;96784.00;;;1.20
7389;BMP180;3735;50.136;11.062;2023-03-11T03:05:11;96804.00;;;1.20
7389;BMP180;3735;50.136;11.062;2023-03-11T03:07:38;96819.00;;;1.20
7389;BMP180;3735;50.136;11.062;2023-03-11T03:10:07;96823.00;;;1.10
7389;BMP180;3735;50.136;11.062;2023-03-11T03:12:33;96826.00;;;1.10
7389;BMP180;3735;50.136;11.062;2023-03-11T03:14:58;96837.00;;;1.10
7389;BMP180;3735;50.136;11.062;2023-03-11T03:17:24;96825.00;;;1.00
7389;BMP180;3735;50.136;11.062;2023-03-11T03:19:50;96834.00;;;1.10
7389;BMP180;3735;50.136;11.062;2023-03-11T03:22:16;96841.00;;;1.10
7389;BMP180;3735;50.136;11.062;2023-03-11T03:24:42;96844.00;;;1.10
7389;BMP180;3735;50.136;11.062;2023-03-11T03:27:07;96840.00;;;1.10
7389;BMP180;3735;50.136;11.062;2023-03-11T03:29:33;96852.00;;;1.10
7389;BMP180;3735;50.136;11.062;2023-03-11T03:31:59;96849.00;;;1.10
7389;BMP180;3735;50.136;11.062;2023-03-11T03:34:24;96817.00;;;1.00
7389;BMP180;3735;50.136;11.062;2023-03-11T03:36:50;96854.00;;;1.00
7389;BMP180;3735;50.136;11.062;2023-03-11T03:39:16;96867.00;;;1.10
7389;BMP180;3735;50.136;11.062;2023-03-11T03:41:44;96870.00;;;1.10
7389;BMP180;3735;50.136;11.062;2023-03-11T03:44:10;96865.00;;;1.00
7389;BMP180;3735;50.136;11.062;2023-03-11T03:46:36;96867.00;;;1.00
7389;BMP180;3735;50.136;11.062;2023-03-11T03:49:03;96865.00;;;1.00
7389;BMP180;3735;50.136;11.062;2023-03-11T03:51:28;96882.00;;;1.00
7389;BMP180;3735;50.136;11.062;2023-03-11T03:53:54;96887.00;;;1.00
7389;BMP180;3735;50.136;11.062;2023-03-11T03:56:20;96886.00;;;1.00
7389;BMP180;3735;50.136;11.062;2023-03-11T03:58:46;96886.00;;;1.00
7389;BMP180;3735;50.136;11.062;2023-03-11T04:01:12;96879.00;;;1.00
7389;BMP180;3735;50.136;11.062;2023-03-11T04:03:38;96886.00;;;1.00
7389;BMP180;3735;50.136;11.062;2023-03-11T04:06:15;96904.00;;;0.90
7389;BMP180;3735;50.136;11.062;2023-03-11T04:08:41;96910.00;;;0.90
7389;BMP180;3735;50.136;11.062;2023-03-11T04:11:07;96915.00;;;0.90
7389;BMP180;3735;50.136;11.062;2023-03-11T04:13:33;96920.00;;;0.90
7389;BMP180;3735;50.136;11.062;2023-03-11T04:15:59;96922.00;;;1.00
7389;BMP180;3735;50.136;11.062;2023-03-11T04:18:27;96932.00;;;0.90
7389;BMP180;3735;50.136;11.062;2023-03-11T04:20:52;96941.00;;;1.00
7389;BMP180;3735;50.136;11.062;2023-03-11T04:23:18;96946.00;;;1.00
7389;BMP180;3735;50.136;11.062;2023-03-11T04:25:44;96945.00;;;1.10
7389;BMP180;3735;50.136;11.062;2023-03-11T04:28:09;96940.00;;;1.10
7389;BMP180;3735;50.136;11.062;2023-03-11T04:30:35;96957.00;;;1.10
7389;BMP180;3735;50.136;11.062;2023-03-11T04:33:01;96955.00;;;1.10
7389;BMP180;3735;50.136;11.062;2023-03-11T04:35:26;96963.00;;;1.10
7389;BMP180;3735;50.136;11.062;2023-03-11T04:37:52;96975.00;;;1.10
7389;BMP180;3735;50.136;11.062;2023-03-11T04:40:18;96971.00;;;1.00
7389;BMP180;3735;50.136;11.062;2023-03-11T04:42:44;96970.00;;;1.00
7389;BMP180;3735;50.136;11.062;2023-03-11T04:45:10;96965.00;;;1.00
7389;BMP180;3735;50.136;11.062;2023-03-11T04:47:36;96972.00;;;0.90
7389;BMP180;3735;50.136;11.062;2023-03-11T04:50:02;96977.00;;;0.90
7389;BMP180;3735;50.136;11.062;2023-03-11T04:52:28;96965.00;;;0.90
7389;BMP180;3735;50.136;11.062;2023-03-11T04:54:54;96973.00;;;0.80
7389;BMP180;3735;50.136;11.062;2023-03-11T04:57:21;96983.00;;;0.90
7389;BMP180;3735;50.136;11.062;2023-03-11T04:59:46;96985.00;;;0.90
7389;BMP180;3735;50.136;11.062;2023-03-11T05:02:12;96985.00;;;0.80
7389;BMP180;3735;50.136;11.062;2023-03-11T05:04:38;96993.00;;;0.70
7389;BMP180;3735;50.136;11.062;2023-03-11T05:07:04;96999.00;;;0.60
7389;BMP180;3735;50.136;11.062;2023-03-11T05:09:29;96996.00;;;0.60
7389;BMP180;3735;50.136;11.062;2023-03-11T05:11:55;97001.00;;;0.40
7389;BMP180;3735;50.136;11.062;2023-03-11T05:14:21;96991.00;;;0.30
7389;BMP180;3735;50.136;11.062;2023-03-11T05:16:47;97017.00;;;0.20
7389;BMP180;3735;50.136;11.062;2023-03-11T05:19:13;96996.00;;;0.20
7389;BMP180;3735;50.136;11.062;2023-03-11T05:21:57;97021.00;;;0.20
7389;BMP180;3735;50.136;11.062;2023-03-11T05:24:23;97022.00;;;0.20
7389;BMP180;3735;50.136;11.062;2023-03-11T05:26:52;97031.00;;;0.30
7389;BMP180;3735;50.136;11.062;2023-03-11T05:29:18;97039.00;;;0.30
7389;BMP180;3735;50.136;11.062;2023-03-11T05:31:44;97020.00;;;0.40
7389;BMP180;3735;50.136;11.062;2023-03-11T05:34:11;97029.00;;;0.50
7389;BMP180;3735;50.136;11.062;2023-03-11T05:36:37;97038.00;;;0.40
7389;BMP180;3735;50.136;11.062;2023-03-11T05:39:03;97034.00;;;0.50
7389;BMP180;3735;50.136;11.062;2023-03-11T05:41:29;97023.00;;;0.40
7389;BMP180;3735;50.136;11.062;2023-03-11T05:43:55;97032.00;;;0.30
7389;BMP180;3735;50.136;11.062;2023-03-11T05:46:21;97025.00;;;0.30
7389;BMP180;3735;50.136;11.062;2023-03-11T05:48:47;97035.00;;;0.20
7389;BMP180;3735;50.136;11.062;2023-03-11T05:51:13;97029.00;;;0.10
7389;BMP180;3735;50.136;11.062;2023-03-11T05:53:43;97036.00;;;0.10
7389;BMP180;3735;50.136;11.062;2023-03-11T05:56:14;97049.00;;;0.10
7389;BMP180;3735;50.136;11.062;2023-03-11T05:58:41;97042.00;;;0.00
7389;BMP180;3735;50.136;11.062;2023-03-11T06:01:13;97052.00;;;0.10
7389;BMP180;3735;50.136;11.062;2023-03-11T06:03:40;97053.00;;;0.10
7389;BMP180;3735;50.136;11.062;2023-03-11T06:06:09;97060.00;;;0.10
7389;BMP180;3735;50.136;11.062;2023-03-11T06:08:36;97056.00;;;0.10
7389;BMP180;3735;50.136;11.062;2023-03-11T06:11:04;97067.00;;;0.20
7389;BMP180;3735;50.136;11.062;2023-03-11T06:13:30;97065.00;;;0.40
7389;BMP180;3735;50.136;11.062;2023-03-11T06:15:56;97069.00;;;0.50
7389;BMP180;3735;50.136;11.062;2023-03-11T06:18:22;97067.00;;;0.70
7389;BMP180;3735;50.136;11.062;2023-03-11T06:20:48;97066.00;;;0.80
7389;BMP180;3735;50.136;11.062;2023-03-11T06:23:14;97059.00;;;1.00
7389;BMP180;3735;50.136;11.062;2023-03-11T06:25:40;97065.00;;;1.20
7389;BMP180;3735;50.136;11.062;2023-03-11T06:28:05;97062.00;;;1.50
7389;BMP180;3735;50.136;11.062;2023-03-11T06:30:31;97065.00;;;2.10
7389;BMP180;3735;50.136;11.062;2023-03-11T06:32:57;97072.00;;;2.50
7389;BMP180;3735;50.136;11.062;2023-03-11T06:35:23;97071.00;;;2.60
7389;BMP180;3735;50.136;11.062;2023-03-11T06:37:48;97084.00;;;2.40
7389;BMP180;3735;50.136;11.062;2023-03-11T06:40:14;97085.00;;;2.30
7389;BMP180;3735;50.136;11.062;2023-03-11T06:42:40;97090.00;;;2.60
7389;BMP180;3735;50.136;11.062;2023-03-11T06:45:07;97096.00;;;2.70
7389;BMP180;3735;50.136;11.062;2023-03-11T06:47:32;97094.00;;;2.50
7389;BMP180;3735;50.136;11.062;2023-03-11T06:49:58;97103.00;;;2.30
7389;BMP180;3735;50.136;11.062;2023-03-11T06:52:26;97101.00;;;2.00
7389;BMP180;3735;50.136;11.062;2023-03-11T06:54:52;97115.00;;;2.20
7389;BMP180;3735;50.136;11.062;2023-03-11T06:57:18;97118.00;;;2.10
7389;BMP180;3735;50.136;11.062;2023-03-11T06:59:43;97111.00;;;2.40
7389;BMP180;3735;50.136;11.062;2023-03-11T07:02:12;97121.00;;;2.40
7389;BMP180;3735;50.136;11.062;2023-03-11T07:04:38;97118.00;;;2.90
7389;BMP180;3735;50.136;11.062;2023-03-11T07:07:03;97118.00;;;3.10
7389;BMP180;3735;50.136;11.062;2023-03-11T07:09:29;97121.00;;;3.50
7389;BMP180;3735;50.136;11.062;2023-03-11T07:11:55;97112.00;;;3.60
7389;BMP180;3735;50.136;11.062;2023-03-11T07:14:21;97128.00;;;3.20
7389;BMP180;3735;50.136;11.062;2023-03-11T07:16:47;97134.00;;;3.00
7389;BMP180;3735;50.136;11.062;2023-03-11T07:19:14;97108.00;;;2.90
7389;BMP180;3735;50.136;11.062;2023-03-11T07:21:40;97138.00;;;3.00
7389;BMP180;3735;50.136;11.062;2023-03-11T07:24:06;97125.00;;;3.20
7389;BMP180;3735;50.136;11.062;2023-03-11T07:26:34;97148.00;;;3.50
7389;BMP180;3735;50.136;11.062;2023-03-11T07:29:01;97145.00;;;4.00
7389;BMP180;3735;50.136;11.062;2023-03-11T07:31:33;97150.00;;;4.20
7389;BMP180;3735;50.136;11.062;2023-03-11T07:34:03;97140.00;;;3.70
7389;BMP180;3735;50.136;11.062;2023-03-11T07:36:29;97152.00;;;3.60
7389;BMP180;3735;50.136;11.062;2023-03-11T07:38:58;97158.00;;;3.80
7389;BMP180;3735;50.136;11.062;2023-03-11T07:41:25;97160.00;;;3.90
7389;BMP180;3735;50.136;11.062;2023-03-11T07:43:57;97160.00;;;3.90
7389;BMP180;3735;50.136;11.062;2023-03-11T07:46:25;97163.00;;;4.30
7389;BMP180;3735;50.136;11.062;2023-03-11T07:48:51;97171.00;;;3.90
7389;BMP180;3735;50.136;11.062;2023-03-11T07:51:20;97165.00;;;3.90
7389;BMP180;3735;50.136;11.062;2023-03-11T07:53:47;97171.00;;;4.10
7389;BMP180;3735;50.136;11.062;2023-03-11T07:56:15;97174.00;;;4.30
7389;BMP180;3735;50.136;11.062;2023-03-11T07:58:42;97174.00;;;4.50
7389;BMP180;3735;50.136;11.062;2023-03-11T08:01:12;97184.00;;;4.60
7389;BMP180;3735;50.136;11.062;2023-03-11T08:03:42;97189.00;;;6.10
7389;BMP180;3735;50.136;11.062;2023-03-11T08:06:35;97183.00;;;7.60
7389;BMP180;3735;50.136;11.062;2023-03-11T08:09:05;97174.00;;;8.20
7389;BMP180;3735;50.136;11.062;2023-03-11T08:11:32;97176.00;;;9.20
7389;BMP180;3735;50.136;11.062;2023-03-11T08:13:58;97182.00;;;9.50
7389;BMP180;3735;50.136;11.062;2023-03-11T08:16:25;97174.00;;;9.40
7389;BMP180;3735;50.136;11.062;2023-03-11T08:18:52;97176.00;;;9.40
7389;BMP180;3735;50.136;11.062;2023-03-11T08:21:24;97194.00;;;9.20
7389;BMP180;3735;50.136;11.062;2023-03-11T08:23:55;97206.00;;;8.00
7389;BMP180;3735;50.136;11.062;2023-03-11T08:26:21;97195.00;;;7.20
7389;BMP180;3735;50.136;11.062;2023-03-11T08:28:48;97213.00;;;6.50
7389;BMP180;3735;50.136;11.062;2023-03-11T08:31:17;97217.00;;;6.10
7389;BMP180;3735;50.136;11.062;2023-03-11T08:33:46;97233.00;;;5.50
7389;BMP180;3735;50.136;11.062;2023-03-11T08:36:14;97239.00;;;5.20
7389;BMP180;3735;50.136;11.062;2023-03-11T08:38:40;97243.00;;;5.00
7389;BMP180;3735;50.136;11.062;2023-03-11T08:41:07;97226.00;;;4.90
7389;BMP180;3735;50.136;11.062;2023-03-11T08:43:33;97249.00;;;5.40
7389;BMP180;3735;50.136;11.062;2023-03-11T08:46:00;97243.00;;;5.90
7389;BMP180;3735;50.136;11.062;2023-03-11T08:48:27;97246.00;;;6.00
7389;BMP180;3735;50.136;11.062;2023-03-11T08:50:53;97252.00;;;5.80
7389;BMP180;3735;50.136;11.062;2023-03-11T08:53:20;97265.00;;;5.70
7389;BMP180;3735;50.136;11.062;2023-03-11T08:55:46;97265.00;;;5.60
7389;BMP180;3735;50.136;11.062;2023-03-11T08:58:12;97273.00;;;5.70
7389;BMP180;3735;50.136;11.062;2023-03-11T09:00:38;97275.00;;;5.70
7389;BMP180;3735;50.136;11.062;2023-03-11T09:03:03;97270.00;;;5.80
7389;BMP180;3735;50.136;11.062;2023-03-11T09:05:29;97278.00;;;5.70
7389;BMP180;3735;50.136;11.062;2023-03-11T09:07:55;97281.00;;;5.50
7389;BMP180;3735;50.136;11.062;2023-03-11T09:10:21;97286.00;;;5.50
7389;BMP180;3735;50.136;11.062;2023-03-11T09:12:46;97304.00;;;5.50
7389;BMP180;3735;50.136;11.062;2023-03-11T09:15:12;97300.00;;;5.50
7389;BMP180;3735;50.136;11.062;2023-03-11T09:17:40;97312.00;;;5.50
7389;BMP180;3735;50.136;11.062;2023-03-11T09:20:07;97294.00;;;5.40
7389;BMP180;3735;50.136;11.062;2023-03-11T09:22:33;97305.00;;;5.60
7389;BMP180;3735;50.136;11.062;2023-03-11T09:24:59;97296.00;;;6.10
7389;BMP180;3735;50.136;11.062;2023-03-11T09:27:24;97280.00;;;6.90
7389;BMP180;3735;50.136;11.062;2023-03-11T09:29:50;97293.00;;;6.80
7389;BMP180;3735;50.136;11.062;2023-03-11T09:32:16;97292.00;;;6.40
7389;BMP180;3735;50.136;11.062;2023-03-11T09:34:42;97305.00;;;6.10
7389;BMP180;3735;50.136;11.062;2023-03-11T09:37:07;97303.00;;;6.80
7389;BMP180;3735;50.136;11.062;2023-03-11T09:39:33;97301.00;;;7.60
7389;BMP180;3735;50.136;11.062;2023-03-11T09:45:26;97321.00;;;6.80
7389;BMP180;3735;50.136;11.062;2023-03-11T09:48:36;97330.00;;;5.90
7389;BMP180;3735;50.136;11.062;2023-03-11T09:51:16;97321.00;;;5.40
7389;BMP180;3735;50.136;11.062;2023-03-11T09:53:45;97347.00;;;5.00
7389;BMP180;3735;50.136;11.062;2023-03-11T09:56:19;97349.00;;;4.80
7389;BMP180;3735;50.136;11.062;2023-03-11T09:58:50;97355.00;;;4.30
7389;BMP180;3735;50.136;11.062;2023-03-11T10:01:50;97369.00;;;4.00
7389;BMP180;3735;50.136;11.062;2023-03-11T10:06:46;97376.00;;;3.50
7389;BMP180;3735;50.136;11.062;2023-03-11T10:09:39;97375.00;;;3.30
7389;BMP180;3735;50.136;11.062;2023-03-11T10:15:54;97396.00;;;3.30
7389;BMP180;3735;50.136;11.062;2023-03-11T10:18:35;97391.00;;;3.40
7389;BMP180;3735;50.136;11.062;2023-03-11T10:21:52;97382.00;;;3.70
7389;BMP180;3735;50.136;11.062;2023-03-11T10:24:35;97383.00;;;4.20
7389;BMP180;3735;50.136;11.062;2023-03-11T10:27:17;97380.00;;;4.60
7389;BMP180;3735;50.136;11.062;2023-03-11T10:30:19;97356.00;;;4.90
7389;BMP180;3735;50.136;11.062;2023-03-11T10:36:12;97372.00;;;6.20
7389;BMP180;3735;50.136;11.062;2023-03-11T10:38:45;97368.00;;;7.00
7389;BMP180;3735;50.136;11.062;2023-03-11T10:41:42;97357.00;;;9.00
7389;BMP180;3735;50.136;11.062;2023-03-11T10:44:31;97343.00;;;10.60
7389;BMP180;3735;50.136;11.062;2023-03-11T10:46:58;97338.00;;;11.80
7389;BMP180;3735;50.136;11.062;2023-03-11T10:49:24;97335.00;;;12.80
7389;BMP180;3735;50.136;11.062;2023-03-11T10:51:52;97339.00;;;12.10
7389;BMP180;3735;50.136;11.062;2023-03-11T10:54:39;97344.00;;;10.40
7389;BMP180;3735;50.136;11.062;2023-03-11T10:57:28;97355.00;;;8.90
7389;BMP180;3735;50.136;11.062;2023-03-11T11:00:00;97357.00;;;7.90
7389;BMP180;3735;50.136;11.062;2023-03-11T11:02:39;97378.00;;;7.40
7389;BMP180;3735;50.136;11.062;2023-03-11T11:07:47;97382.00;;;6.50
7389;BMP180;3735;50.136;11.062;2023-03-11T11:10:21;97390.00;;;6.20
7389;BMP180;3735;50.136;11.062;2023-03-11T11:18:27;97412.00;;;5.70
7389;BMP180;3735;50.136;11.062;2023-03-11T11:21:06;97409.00;;;5.70
7389;BMP180;3735;50.136;11.062;2023-03-11T11:23:36;97411.00;;;5.30
7389;BMP180;3735;50.136;11.062;2023-03-11T11:26:13;97397.00;;;5.10
7389;BMP180;3735;50.136;11.062;2023-03-11T11:28:40;97393.00;;;5.00
7389;BMP180;3735;50.136;11.062;2023-03-11T11:31:22;97402.00;;;4.70
7389;BMP180;3735;50.136;11.062;2023-03-11T11:33:52;97396.00;;;4.90
7389;BMP180;3735;50.136;11.062;2023-03-11T11:36:22;97385.00;;;5.00
7389;BMP180;3735;50.136;11.062;2023-03-11T11:38:52;97391.00;;;5.30
7389;BMP180;3735;50.136;11.062;2023-03-11T11:41:22;97399.00;;;5.40
7389;BMP180;3735;50.136;11.062;2023-03-11T11:43:51;97404.00;;;5.20
7389;BMP180;3735;50.136;11.062;2023-03-11T11:49:32;97408.00;;;5.00
7389;BMP180;3735;50.136;11.062;2023-03-11T11:52:13;97398.00;;;5.10
7389;BMP180;3735;50.136;11.062;2023-03-11T11:54:52;97406.00;;;5.20
7389;BMP180;3735;50.136;11.062;2023-03-11T11:57:21;97398.00;;;5.10
7389;BMP180;3735;50.136;11.062;2023-03-11T11:59:47;97409.00;;;5.30
7389;BMP180;3735;50.136;11.062;2023-03-11T12:05:29;97397.00;;;5.40
7389;BMP180;3735;50.136;11.062;2023-03-11T12:08:41;97414.00;;;5.30
7389;BMP180;3735;50.136;11.062;2023-03-11T12:11:29;97409.00;;;5.60
7389;BMP180;3735;50.136;11.062;2023-03-11T12:16:40;97406.00;;;5.90
7389;BMP180;3735;50.136;11.062;2023-03-11T12:19:13;97405.00;;;6.00
7389;BMP180;3735;50.136;11.062;2023-03-11T12:26:51;97399.00;;;6.50
7389;BMP180;3735;50.136;11.062;2023-03-11T12:31:50;97397.00;;;6.50
7389;BMP180;3735;50.136;11.062;2023-03-11T12:34:19;97394.00;;;6.60
7389;BMP180;3735;50.136;11.062;2023-03-11T12:36:48;97394.00;;;6.60
7389;BMP180;3735;50.136;11.062;2023-03-11T12:39:35;97389.00;;;6.50
7389;BMP180;3735;50.136;11.062;2023-03-11T12:44:37;97411.00;;;5.90
7389;BMP180;3735;50.136;11.062;2023-03-11T12:49:54;97417.00;;;5.60
7389;BMP180;3735;50.136;11.062;2023-03-11T12:52:27;97416.00;;;5.40
7389;BMP180;3735;50.136;11.062;2023-03-11T13:08:52;97430.00;;;4.80
7389;BMP180;3735;50.136;11.062;2023-03-11T13:11:41;97436.00;;;4.70
7389;BMP180;3735;50.136;11.062;2023-03-11T13:16:42;97437.00;;;5.00
7389;BMP180;3735;50.136;11.062;2023-03-11T13:22:01;97446.00;;;5.00
7389;BMP180;3735;50.136;11.062;2023-03-11T13:36:05;97443.00;;;5.60
7389;BMP180;3735;50.136;11.062;2023-03-11T13:39:35;97444.00;;;5.40
7389;BMP180;3735;50.136;11.062;2023-03-11T13:42:30;97439.00;;;5.20
7389;BMP180;3735;50.136;11.062;2023-03-11T13:44:59;97439.00;;;5.20
7389;BMP180;3735;50.136;11.062;2023-03-11T13:47:27;97448.00;;;5.40
7389;BMP180;3735;50.136;11.062;2023-03-11T13:50:22;97459.00;;;5.20
7389;BMP180;3735;50.136;11.062;2023-03-11T13:52:52;97462.00;;;5.40
7389;BMP180;3735;50.136;11.062;2023-03-11T13:55:22;97464.00;;;5.30
7389;BMP180;3735;50.136;11.062;2023-03-11T13:57:55;97464.00;;;5.10
7389;BMP180;3735;50.136;11.062;2023-03-11T14:00:28;97476.00;;;5.20
7389;BMP180;3735;50.136;11.062;2023-03-11T14:03:01;97477.00;;;5.30
7389;BMP180;3735;50.136;11.062;2023-03-11T14:05:44;97476.00;;;5.10
7389;BMP180;3735;50.136;11.062;2023-03-11T14:08:29;97491.00;;;4.80
7389;BMP180;3735;50.136;11.062;2023-03-11T14:13:52;97487.00;;;5.00
7389;BMP180;3735;50.136;11.062;2023-03-11T14:16:36;97498.00;;;5.00
7389;BMP180;3735;50.136;11.062;2023-03-11T14:19:17;97491.00;;;4.90
7389;BMP180;3735;50.136;11.062;2023-03-11T14:21:49;97483.00;;;4.80
7389;BMP180;3735;50.136;11.062;2023-03-11T14:24:26;97502.00;;;4.70
7389;BMP180;3735;50.136;11.062;2023-03-11T14:26:56;97501.00;;;4.90
7389;BMP180;3735;50.136;11.062;2023-03-11T14:29:39;97499.00;;;4.90
7389;BMP180;3735;50.136;11.062;2023-03-11T14:32:37;97503.00;;;4.80
7389;BMP180;3735;50.136;11.062;2023-03-11T14:35:19;97492.00;;;4.90
7389;BMP180;3735;50.136;11.062;2023-03-11T14:37:45;97509.00;;;5.00
7389;BMP180;3735;50.136;11.062;2023-03-11T14:40:37;97519.00;;;5.00
7389;BMP180;3735;50.136;11.062;2023-03-11T14:43:06;97517.00;;;5.20
7389;BMP180;3735;50.136;11.062;2023-03-11T14:45:34;97514.00;;;5.30
7389;BMP180;3735;50.136;11.062;2023-03-11T14:50:49;97505.00;;;5.40
7389;BMP180;3735;50.136;11.062;2023-03-11T14:54:20;97500.00;;;5.50
7389;BMP180;3735;50.136;11.062;2023-03-11T14:57:00;97494.00;;;5.50
7389;BMP180;3735;50.136;11.062;2023-03-11T14:59:30;97498.00;;;5.70
7389;BMP180;3735;50.136;11.062;2023-03-11T15:04:53;97497.00;;;5.80
7389;BMP180;3735;50.136;11.062;2023-03-11T15:07:21;97509.00;;;6.10
7389;BMP180;3735;50.136;11.062;2023-03-11T15:09:47;97502.00;;;6.40
7389;BMP180;3735;50.136;11.062;2023-03-11T15:12:34;97501.00;;;7.20
7389;BMP180;3735;50.136;11.062;2023-03-11T15:15:18;97515.00;;;7.30
7389;BMP180;3735;50.136;11.062;2023-03-11T15:17:52;97509.00;;;7.10
7389;BMP180;3735;50.136;11.062;2023-03-11T15:20:34;97524.00;;;6.80
7389;BMP180;3735;50.136;11.062;2023-03-11T15:23:05;97529.00;;;6.40
7389;BMP180;3735;50.136;11.062;2023-03-11T15:25:36;97523.00;;;6.50
7389;BMP180;3735;50.136;11.062;2023-03-11T15:28:24;97531.00;;;6.40
7389;BMP180;3735;50.136;11.062;2023-03-11T15:33:42;97532.00;;;6.10
7389;BMP180;3735;50.136;11.062;2023-03-11T15:36:34;97533.00;;;5.80
7389;BMP180;3735;50.136;11.062;2023-03-11T15:39:18;97535.00;;;5.60
7389;BMP180;3735;50.136;11.062;2023-03-11T15:41:57;97541.00;;;5.30
7389;BMP180;3735;50.136;11.062;2023-03-11T15:44:35;97543.00;;;5.20
7389;BMP180;3735;50.136;11.062;2023-03-11T15:47:02;97545.00;;;4.80
7389;BMP180;3735;50.136;11.062;2023-03-11T15:49:30;97543.00;;;4.60
7389;BMP180;3735;50.136;11.062;2023-03-11T15:52:01;97550.00;;;4.40
7389;BMP180;3735;50.136;11.062;2023-03-11T15:54:27;97557.00;;;4.30
7389;BMP180;3735;50.136;11.062;2023-03-11T15:56:56;97565.00;;;4.20
7389;BMP180;3735;50.136;11.062;2023-03-11T15:59:23;97560.00;;;4.10
7389;BMP180;3735;50.136;11.062;2023-03-11T16:01:49;97550.00;;;4.00
7389;BMP180;3735;50.136;11.062;2023-03-11T16:04:18;97562.00;;;4.00
7389;BMP180;3735;50.136;11.062;2023-03-11T16:06:45;97552.00;;;4.00
7389;BMP180;3735;50.136;11.062;2023-03-11T16:09:13;97538.00;;;4.10
7389;BMP180;3735;50.136;11.062;2023-03-11T16:11:40;97566.00;;;4.10
7389;BMP180;3735;50.136;11.062;2023-03-11T16:14:17;97569.00;;;4.10
7389;BMP180;3735;50.136;11.062;2023-03-11T16:16:44;97555.00;;;4.10
7389;BMP180;3735;50.136;11.062;2023-03-11T16:19:11;97556.00;;;4.00
7389;BMP180;3735;50.136;11.062;2023-03-11T16:21:42;97555.00;;;4.00
7389;BMP180;3735;50.136;11.062;2023-03-11T16:24:21;97555.00;;;3.90
7389;BMP180;3735;50.136;11.062;2023-03-11T16:26:49;97558.00;;;3.90